Time;durP1;ratioP1;P1;durP2;ratioP2;P2;SDS_P1;SDS_P2;PMS_P1;PMS_P2;Temp;Humidity;BMP_temperature;BMP_pressure;BME280_temperature;BME280_humidity;BME280_pressure;Samples;Min_cycle;Max_cycle;Signal;HPM_P1;HPM_P2
2023/02/04 00:01:34;;;;;;;13.50;2.10;;;8.60;99.90;;;;;;5014042;28;20227;-70
2023/02/04 00:04:00;;;;;;;5.40;2.23;;;8.60;99.90;;;;;;5010622;28;20235;-71
2023/02/04 00:06:26;;;;;;;6.37;2.20;;;8.60;99.90;;;;;;4990398;28;20520;-71
2023/02/04 00:08:52;;;;;;;6.20;2.83;;;8.60;99.90;;;;;;4994053;28;20293;-69
2023/02/04 00:11:17;;;;;;;5.80;2.57;;;8.60;99.90;;;;;;4994735;28;20762;-71
2023/02/04 00:13:43;;;;;;;5.17;2.30;;;8.60;99.90;;;;;;5009425;28;20232;-70
2023/02/04 00:16:09;;;;;;;5.20;2.30;;;8.60;99.90;;;;;;4982589;28;20573;-69
2023/02/04 00:18:35;;;;;;;3.37;1.50;;;8.60;99.90;;;;;;5009961;28;20219;-71
2023/02/04 00:21:00;;;;;;;4.70;1.80;;;8.50;99.90;;;;;;5010619;28;20223;-70
2023/02/04 00:23:26;;;;;;;7.33;2.23;;;8.50;99.90;;;;;;4993600;28;20219;-70
2023/02/04 00:25:51;;;;;;;9.60;2.00;;;8.50;99.90;;;;;;4992700;28;20228;-70
2023/02/04 00:28:17;;;;;;;13.83;3.10;;;8.50;99.90;;;;;;4995062;28;20311;-70
2023/02/04 00:30:43;;;;;;;6.00;2.33;;;8.50;99.90;;;;;;5004521;28;20258;-70
2023/02/04 00:33:09;;;;;;;4.00;2.33;;;8.50;99.90;;;;;;5005137;28;20326;-70
2023/02/04 00:35:36;;;;;;;8.10;2.50;;;8.50;99.90;;;;;;4997546;28;20467;-71
2023/02/04 00:38:02;;;;;;;4.03;1.60;;;8.50;99.90;;;;;;4993290;28;20302;-69
2023/02/04 00:40:28;;;;;;;4.00;2.00;;;8.50;99.90;;;;;;5008995;28;20461;-71
2023/02/04 00:42:53;;;;;;;6.97;3.03;;;8.50;99.90;;;;;;4993694;28;20508;-70
2023/02/04 00:45:19;;;;;;;7.07;2.43;;;8.50;99.90;;;;;;4993812;28;20270;-70
2023/02/04 00:47:45;;;;;;;4.43;2.07;;;8.50;99.90;;;;;;4998873;28;20249;-70
2023/02/04 00:50:11;;;;;;;5.00;2.30;;;8.50;99.90;;;;;;4984347;28;20261;-70
2023/02/04 00:52:36;;;;;;;4.20;2.43;;;8.50;99.90;;;;;;4993442;28;20228;-70
2023/02/04 00:55:02;;;;;;;6.70;2.10;;;8.50;99.90;;;;;;5010004;28;20216;-70
2023/02/04 00:57:28;;;;;;;9.40;3.27;;;8.50;99.90;;;;;;4997202;28;20376;-71
2023/02/04 00:59:54;;;;;;;7.43;2.50;;;8.50;99.90;;;;;;4993027;28;20528;-69
2023/02/04 01:02:19;;;;;;;4.30;2.50;;;8.50;99.90;;;;;;4980594;28;20723;-70
2023/02/04 01:04:45;;;;;;;4.63;2.10;;;8.50;99.90;;;;;;4991827;28;20605;-70
2023/02/04 01:07:11;;;;;;;7.23;2.13;;;8.50;99.90;;;;;;4973532;28;20224;-70
2023/02/04 01:09:36;;;;;;;4.90;2.37;;;8.50;99.90;;;;;;4988101;28;20295;-71
2023/02/04 01:12:03;;;;;;;2.90;2.70;;;8.50;99.90;;;;;;5004418;28;20218;-71
2023/02/04 01:14:29;;;;;;;7.00;3.00;;;8.50;99.90;;;;;;4991313;28;20454;-70
2023/02/04 01:16:55;;;;;;;7.47;2.93;;;8.50;99.90;;;;;;5003797;28;20994;-70
2023/02/04 01:19:20;;;;;;;6.80;2.40;;;8.50;99.90;;;;;;4991342;28;20235;-69
2023/02/04 01:21:46;;;;;;;8.57;2.73;;;8.50;99.90;;;;;;5006884;28;20219;-72
2023/02/04 01:24:12;;;;;;;6.83;3.27;;;8.40;99.90;;;;;;5009717;28;20358;-71
2023/02/04 01:26:56;;;;;;;6.07;3.47;;;8.50;99.90;;;;;;5008691;28;20452;-70
2023/02/04 01:29:22;;;;;;;5.83;3.40;;;8.50;99.90;;;;;;5010272;28;20440;-70
2023/02/04 01:31:49;;;;;;;5.10;3.33;;;8.50;99.90;;;;;;5008922;28;20223;-70
2023/02/04 01:34:15;;;;;;;8.03;3.47;;;8.50;99.90;;;;;;5010745;28;20449;-70
2023/02/04 01:36:40;;;;;;;11.10;3.10;;;8.50;99.90;;;;;;5008942;28;20224;-70
2023/02/04 01:39:06;;;;;;;4.80;2.80;;;8.50;99.90;;;;;;4989272;28;20230;-72
2023/02/04 01:41:32;;;;;;;6.33;3.80;;;8.50;99.90;;;;;;4991713;28;20226;-70
2023/02/04 01:43:58;;;;;;;3.20;2.90;;;8.50;99.90;;;;;;5008122;28;20226;-71
2023/02/04 01:46:24;;;;;;;8.23;3.07;;;8.50;99.90;;;;;;5009931;28;20460;-71
2023/02/04 01:48:50;;;;;;;6.63;2.90;;;8.50;99.90;;;;;;5008892;28;20250;-71
2023/02/04 01:51:27;;;;;;;4.47;2.73;;;8.50;99.90;;;;;;5008330;28;20254;-71
2023/02/04 01:53:54;;;;;;;2.60;2.30;;;8.50;99.90;;;;;;5007583;28;20711;-71
2023/02/04 01:56:26;;;;;;;3.57;2.47;;;8.50;99.90;;;;;;5009766;28;20463;-70
2023/02/04 01:58:56;;;;;;;10.63;3.23;;;8.50;99.90;;;;;;5002612;28;20530;-71
2023/02/04 02:01:42;;;;;;;7.63;2.87;;;8.50;99.90;;;;;;4999749;28;20536;-70
2023/02/04 02:04:13;;;;;;;5.80;3.50;;;8.50;99.90;;;;;;4987205;28;20462;-70
2023/02/04 02:06:42;;;;;;;14.93;3.40;;;8.50;99.90;;;;;;4980811;28;20518;-71
2023/02/04 02:09:08;;;;;;;4.50;2.70;;;8.40;99.90;;;;;;4996068;28;20452;-71
2023/02/04 02:11:34;;;;;;;7.77;2.90;;;8.50;99.90;;;;;;5006880;28;20459;-71
2023/02/04 02:14:00;;;;;;;4.40;2.50;;;8.40;99.90;;;;;;5009092;28;20233;-70
2023/02/04 02:16:28;;;;;;;4.10;2.27;;;8.50;99.90;;;;;;5009624;28;20299;-71
2023/02/04 02:18:56;;;;;;;3.70;2.33;;;8.40;99.90;;;;;;5005080;28;20257;-71
2023/02/04 02:21:48;;;;;;;3.80;2.60;;;8.40;99.90;;;;;;5008562;28;20493;-71
2023/02/04 02:24:28;;;;;;;5.33;2.70;;;8.40;99.90;;;;;;4982003;28;20810;-70
2023/02/04 02:26:56;;;;;;;3.93;2.50;;;8.30;99.90;;;;;;5009750;28;20451;-71
2023/02/04 02:29:24;;;;;;;6.43;2.63;;;8.30;99.90;;;;;;4991949;28;20970;-70
2023/02/04 02:31:50;;;;;;;3.33;2.27;;;8.30;99.90;;;;;;4988426;28;20462;-72
2023/02/04 02:34:16;;;;;;;3.07;2.63;;;8.30;99.90;;;;;;5009329;28;20509;-70
2023/02/04 02:36:42;;;;;;;2.90;2.43;;;8.30;99.90;;;;;;5000927;28;20582;-70
2023/02/04 02:39:07;;;;;;;7.40;2.80;;;8.30;99.90;;;;;;5011529;28;20301;-71
2023/02/04 02:41:34;;;;;;;5.93;2.17;;;8.30;99.90;;;;;;5007713;28;20700;-71
2023/02/04 02:44:01;;;;;;;4.47;2.90;;;8.30;99.90;;;;;;5011318;28;20694;-70
2023/02/04 02:46:26;;;;;;;4.23;2.50;;;8.30;99.90;;;;;;4985025;28;20459;-72
2023/02/04 02:48:52;;;;;;;4.67;2.50;;;8.30;99.90;;;;;;5017710;28;20528;-71
2023/02/04 02:51:18;;;;;;;3.00;2.40;;;8.30;99.90;;;;;;4994186;28;20239;-69
2023/02/04 02:53:46;;;;;;;6.90;2.60;;;8.30;99.90;;;;;;4989540;28;20866;-71
2023/02/04 02:56:12;;;;;;;8.17;2.60;;;8.30;99.90;;;;;;5021303;28;20226;-71
2023/02/04 02:58:38;;;;;;;4.13;2.60;;;8.30;99.90;;;;;;5022517;28;20452;-70
2023/02/04 03:01:07;;;;;;;5.37;2.50;;;8.30;99.90;;;;;;5002307;28;20231;-72
2023/02/04 03:03:42;;;;;;;6.97;2.70;;;8.20;99.90;;;;;;5001281;28;20488;-71
2023/02/04 03:06:19;;;;;;;3.53;2.40;;;8.20;99.90;;;;;;4986046;28;20458;-70
2023/02/04 03:08:49;;;;;;;15.57;3.03;;;8.20;99.90;;;;;;5014819;28;20484;-71
2023/02/04 03:11:14;;;;;;;6.63;2.60;;;8.20;99.90;;;;;;5000738;28;20473;-71
2023/02/04 03:13:41;;;;;;;10.63;2.90;;;8.20;99.90;;;;;;4993064;28;20461;-70
2023/02/04 03:16:07;;;;;;;5.77;2.10;;;8.20;99.90;;;;;;5000712;28;20218;-71
2023/02/04 03:18:34;;;;;;;3.97;2.37;;;8.20;99.90;;;;;;5007671;28;20522;-70
2023/02/04 03:21:03;;;;;;;2.97;2.20;;;8.20;99.90;;;;;;5007054;28;20479;-70
2023/02/04 03:23:32;;;;;;;5.10;2.07;;;8.10;99.90;;;;;;4975216;28;20467;-71
2023/02/04 03:25:58;;;;;;;7.30;2.60;;;8.10;99.90;;;;;;5007165;28;20458;-70
2023/02/04 03:28:24;;;;;;;6.00;2.40;;;8.10;99.90;;;;;;5007925;28;20483;-70
2023/02/04 03:30:52;;;;;;;3.20;2.67;;;8.10;99.90;;;;;;5002862;28;20450;-71
2023/02/04 03:33:18;;;;;;;3.93;2.07;;;8.10;99.90;;;;;;5002951;28;20224;-71
2023/02/04 03:35:43;;;;;;;4.43;2.57;;;8.10;99.90;;;;;;4991583;28;20454;-70
2023/02/04 03:38:09;;;;;;;4.70;2.33;;;8.10;99.90;;;;;;5007686;28;20639;-71
2023/02/04 03:40:34;;;;;;;2.23;1.80;;;8.00;99.90;;;;;;5007393;28;20301;-71
2023/02/04 03:43:00;;;;;;;3.90;2.10;;;7.90;99.90;;;;;;4995602;28;20239;-71
2023/02/04 03:45:26;;;;;;;3.90;2.87;;;7.80;99.90;;;;;;5010754;28;20230;-72
2023/02/04 03:47:51;;;;;;;5.33;2.53;;;7.70;99.90;;;;;;5011077;28;20302;-70
2023/02/04 03:50:17;;;;;;;3.50;2.37;;;7.70;99.90;;;;;;5012115;28;20230;-71
2023/02/04 03:52:43;;;;;;;2.53;2.30;;;7.60;99.90;;;;;;5008292;28;20234;-71
2023/02/04 03:55:09;;;;;;;6.60;2.80;;;7.60;99.90;;;;;;5012010;28;20231;-71
2023/02/04 03:57:35;;;;;;;4.50;2.60;;;7.60;99.90;;;;;;4994679;28;20446;-72
2023/02/04 04:00:00;;;;;;;3.73;2.40;;;7.70;99.90;;;;;;4992189;28;20294;-71
2023/02/04 04:02:26;;;;;;;6.17;2.67;;;7.80;99.90;;;;;;5010868;28;20235;-70
2023/02/04 04:04:52;;;;;;;5.67;2.40;;;7.70;99.90;;;;;;5010456;28;20234;-70
2023/02/04 04:07:17;;;;;;;11.93;2.80;;;7.70;99.90;;;;;;4992010;28;20236;-70
2023/02/04 04:09:43;;;;;;;5.33;1.97;;;7.70;99.90;;;;;;4993973;28;20256;-70
2023/02/04 04:12:08;;;;;;;4.07;2.53;;;7.70;99.90;;;;;;5012791;28;20307;-71
2023/02/04 04:14:34;;;;;;;4.50;2.73;;;7.60;99.90;;;;;;4994191;28;20231;-70
2023/02/04 04:17:00;;;;;;;8.07;2.80;;;7.50;99.90;;;;;;5011237;28;20684;-71
2023/02/04 04:19:25;;;;;;;4.27;3.23;;;7.50;99.90;;;;;;5012473;28;20305;-69
2023/02/04 04:21:51;;;;;;;5.33;2.90;;;7.50;99.90;;;;;;5009178;28;20210;-70
2023/02/04 04:24:17;;;;;;;5.80;3.33;;;7.60;99.90;;;;;;5012395;28;20699;-69
2023/02/04 04:26:42;;;;;;;5.83;2.63;;;7.60;99.90;;;;;;5010522;28;20755;-70
2023/02/04 04:29:08;;;;;;;5.03;2.50;;;7.70;99.90;;;;;;5011199;28;20224;-70
2023/02/04 04:31:33;;;;;;;6.60;3.50;;;7.80;99.90;;;;;;5011201;28;20223;-70
2023/02/04 04:34:00;;;;;;;6.50;3.13;;;7.70;99.90;;;;;;5010661;28;20223;-71
2023/02/04 04:36:26;;;;;;;3.20;2.90;;;7.60;99.90;;;;;;4996385;28;20246;-71
2023/02/04 04:38:52;;;;;;;7.77;3.20;;;7.60;99.90;;;;;;4999450;28;20481;-70
2023/02/04 04:41:17;;;;;;;5.30;3.30;;;7.60;99.90;;;;;;4998447;28;20675;-70
2023/02/04 04:43:43;;;;;;;7.20;4.10;;;7.60;99.90;;;;;;5008915;28;20227;-71
2023/02/04 04:46:09;;;;;;;11.13;3.83;;;7.50;99.90;;;;;;4993762;28;20241;-71
2023/02/04 04:48:34;;;;;;;7.07;3.23;;;7.50;99.90;;;;;;5009847;28;20222;-71
2023/02/04 04:51:00;;;;;;;7.40;3.77;;;7.50;99.90;;;;;;5009909;28;20215;-71
2023/02/04 04:53:25;;;;;;;7.60;3.90;;;7.50;99.90;;;;;;5001580;28;20227;-71
2023/02/04 04:55:51;;;;;;;5.43;3.23;;;7.60;99.90;;;;;;5009876;28;20223;-70
2023/02/04 04:58:17;;;;;;;4.67;3.77;;;7.70;99.90;;;;;;5008733;28;20219;-71
2023/02/04 05:00:42;;;;;;;9.53;3.97;;;7.70;99.90;;;;;;5008480;28;20224;-71
2023/02/04 05:03:08;;;;;;;5.83;3.43;;;7.80;99.90;;;;;;4996602;28;20226;-70
2023/02/04 05:05:38;;;;;;;11.13;3.57;;;7.80;99.90;;;;;;4997930;28;20645;-71
2023/02/04 05:08:05;;;;;;;5.27;3.13;;;7.80;99.90;;;;;;4992988;28;20223;-70
2023/02/04 05:10:31;;;;;;;4.50;3.10;;;7.80;99.90;;;;;;5007931;28;20520;-70
2023/02/04 05:12:56;;;;;;;3.70;2.77;;;7.80;99.90;;;;;;5012055;28;20455;-71
2023/02/04 05:15:22;;;;;;;5.20;2.37;;;7.90;99.90;;;;;;5009489;28;20646;-71
2023/02/04 05:17:48;;;;;;;8.80;3.03;;;7.90;99.90;;;;;;4993660;28;20215;-70
2023/02/04 05:20:13;;;;;;;8.70;2.97;;;7.90;99.90;;;;;;5011565;28;20231;-71
2023/02/04 05:22:39;;;;;;;9.07;4.60;;;7.90;99.90;;;;;;5008317;28;20231;-71
2023/02/04 05:25:05;;;;;;;6.57;3.20;;;7.90;99.90;;;;;;4995273;28;20215;-70
2023/02/04 05:27:30;;;;;;;17.30;3.63;;;7.90;99.90;;;;;;5010009;28;20239;-72
2023/02/04 05:29:56;;;;;;;10.00;3.50;;;7.90;99.90;;;;;;5000882;28;20536;-71
2023/02/04 05:32:22;;;;;;;10.23;3.90;;;7.90;99.90;;;;;;5010270;28;20701;-70
2023/02/04 05:34:47;;;;;;;3.13;2.40;;;7.90;99.90;;;;;;5008285;28;20238;-71
2023/02/04 05:37:14;;;;;;;8.07;3.70;;;7.90;99.90;;;;;;5029953;28;20264;-71
2023/02/04 05:39:39;;;;;;;4.90;2.90;;;7.90;99.90;;;;;;5009710;28;20302;-72
2023/02/04 05:42:05;;;;;;;8.33;3.53;;;7.90;99.90;;;;;;5009371;28;20523;-71
2023/02/04 05:44:31;;;;;;;4.97;3.17;;;7.90;99.90;;;;;;5008547;28;20285;-71
2023/02/04 05:46:56;;;;;;;6.83;3.70;;;8.00;99.90;;;;;;4993113;28;20221;-71
2023/02/04 05:49:23;;;;;;;7.67;4.17;;;7.90;99.90;;;;;;5008923;28;20224;-71
2023/02/04 05:51:49;;;;;;;7.40;3.10;;;8.00;99.90;;;;;;5008960;28;20227;-72
2023/02/04 05:54:18;;;;;;;8.10;3.57;;;7.90;99.90;;;;;;4992137;28;20986;-71
2023/02/04 05:56:45;;;;;;;8.57;3.73;;;7.90;99.90;;;;;;4992340;28;20216;-70
2023/02/04 05:59:10;;;;;;;5.40;3.50;;;7.90;99.90;;;;;;4991636;28;20488;-71
2023/02/04 06:01:36;;;;;;;6.40;3.00;;;7.80;99.90;;;;;;5003213;28;20486;-72
2023/02/04 06:04:02;;;;;;;5.57;3.50;;;7.80;99.90;;;;;;5008290;28;20226;-70
2023/02/04 06:06:27;;;;;;;6.90;2.83;;;7.80;99.90;;;;;;5011014;28;20231;-71
2023/02/04 06:08:53;;;;;;;5.17;2.73;;;7.70;99.90;;;;;;4991733;28;20218;-70
2023/02/04 06:11:18;;;;;;;8.13;3.50;;;7.60;99.90;;;;;;4991740;28;20326;-70
2023/02/04 06:13:44;;;;;;;13.00;4.27;;;7.70;99.90;;;;;;5010890;28;20234;-70
2023/02/04 06:16:10;;;;;;;10.93;3.90;;;7.70;99.90;;;;;;5013926;28;20230;-71
2023/02/04 06:18:35;;;;;;;8.27;3.40;;;7.80;99.90;;;;;;5002586;28;20223;-71
2023/02/04 06:21:03;;;;;;;8.20;3.97;;;7.70;99.90;;;;;;5010606;28;20226;-72
2023/02/04 06:23:30;;;;;;;9.43;3.87;;;7.70;99.90;;;;;;5009725;28;20314;-72
2023/02/04 06:25:56;;;;;;;5.93;3.53;;;7.70;99.90;;;;;;5004568;28;20469;-71
2023/02/04 06:28:21;;;;;;;7.07;3.30;;;7.80;99.90;;;;;;5007842;28;20463;-72
2023/02/04 06:30:48;;;;;;;9.40;4.00;;;7.80;99.90;;;;;;5007004;28;20229;-72
2023/02/04 06:33:14;;;;;;;5.23;3.40;;;7.80;99.90;;;;;;5008934;28;20362;-72
2023/02/04 06:35:39;;;;;;;9.73;3.70;;;7.80;99.90;;;;;;4991709;28;20545;-72
2023/02/04 06:38:05;;;;;;;5.60;2.80;;;7.90;99.90;;;;;;4990318;28;20235;-72
2023/02/04 06:40:30;;;;;;;6.60;3.60;;;7.90;99.90;;;;;;4994589;28;20221;-72
2023/02/04 06:42:56;;;;;;;9.07;2.80;;;7.80;99.90;;;;;;5003000;28;20230;-72
2023/02/04 06:45:22;;;;;;;8.57;3.13;;;7.80;99.90;;;;;;5008349;28;20308;-71
2023/02/04 06:47:47;;;;;;;7.60;3.30;;;7.90;99.90;;;;;;5007905;28;20245;-72
2023/02/04 06:50:17;;;;;;;7.33;3.57;;;7.80;99.90;;;;;;5006697;28;20244;-71
2023/02/04 06:52:45;;;;;;;8.07;3.33;;;7.90;99.90;;;;;;4995174;28;20295;-71
2023/02/04 06:55:11;;;;;;;4.27;3.30;;;7.90;99.90;;;;;;4991498;28;20490;-72
2023/02/04 06:57:36;;;;;;;7.07;3.50;;;7.90;99.90;;;;;;5004223;28;20462;-72
2023/02/04 07:00:03;;;;;;;10.03;3.60;;;7.90;99.90;;;;;;5009607;28;20512;-71
2023/02/04 07:02:29;;;;;;;3.70;3.00;;;7.90;99.90;;;;;;4978328;28;20218;-73
2023/02/04 07:04:54;;;;;;;5.67;4.10;;;7.90;99.90;;;;;;4989229;28;20473;-74
2023/02/04 07:07:20;;;;;;;7.43;2.93;;;7.90;99.90;;;;;;5002554;28;20222;-72
2023/02/04 07:09:46;;;;;;;7.03;3.03;;;7.90;99.90;;;;;;4988810;28;20319;-72
2023/02/04 07:12:11;;;;;;;12.30;3.80;;;7.90;99.90;;;;;;5005311;28;20238;-73
2023/02/04 07:14:37;;;;;;;6.17;3.40;;;7.90;99.90;;;;;;5007867;28;20275;-72
2023/02/04 07:17:02;;;;;;;6.33;3.20;;;7.80;99.90;;;;;;4980936;28;20269;-71
2023/02/04 07:19:28;;;;;;;10.93;3.37;;;7.70;99.90;;;;;;5017312;28;20218;-72
2023/02/04 07:21:55;;;;;;;14.23;3.60;;;7.70;99.90;;;;;;4994545;28;20228;-70
2023/02/04 07:24:22;;;;;;;5.47;3.20;;;7.70;99.90;;;;;;5005826;28;20254;-72
2023/02/04 07:26:48;;;;;;;10.03;4.70;;;7.70;99.90;;;;;;5009825;28;20857;-71
2023/02/04 07:29:14;;;;;;;6.87;2.83;;;7.80;99.90;;;;;;4980286;28;20472;-71
2023/02/04 07:31:39;;;;;;;12.73;3.67;;;7.80;99.90;;;;;;4986412;28;20504;-72
2023/02/04 07:34:05;;;;;;;10.07;4.10;;;7.70;99.90;;;;;;5008654;28;20249;-72
2023/02/04 07:36:31;;;;;;;6.70;4.03;;;7.70;99.90;;;;;;5006591;28;20321;-72
2023/02/04 07:38:56;;;;;;;11.00;3.70;;;7.70;99.90;;;;;;5007938;28;20232;-72
2023/02/04 07:41:22;;;;;;;10.97;4.37;;;7.70;99.90;;;;;;5008075;28;20655;-72
2023/02/04 07:43:47;;;;;;;9.10;4.07;;;7.70;99.90;;;;;;5007890;28;20231;-71
2023/02/04 07:46:13;;;;;;;9.17;4.40;;;7.80;99.90;;;;;;5002601;28;20254;-71
2023/02/04 07:48:39;;;;;;;7.80;5.10;;;7.80;99.90;;;;;;5006052;28;20214;-72
2023/02/04 07:51:05;;;;;;;9.50;4.27;;;7.80;99.90;;;;;;5008560;28;20230;-72
2023/02/04 07:53:30;;;;;;;10.87;5.67;;;7.80;99.90;;;;;;5011557;28;20238;-72
2023/02/04 07:55:56;;;;;;;10.47;5.30;;;7.80;99.90;;;;;;5000733;28;20222;-70
2023/02/04 07:58:22;;;;;;;10.20;3.97;;;7.80;99.90;;;;;;5008476;28;20304;-72
2023/02/04 08:00:47;;;;;;;11.27;3.80;;;7.90;99.90;;;;;;5022286;28;20221;-72
2023/02/04 08:03:13;;;;;;;6.47;3.90;;;7.90;99.90;;;;;;5013770;28;20734;-72
2023/02/04 08:05:39;;;;;;;16.33;4.57;;;7.90;99.90;;;;;;5003983;28;20280;-72
2023/02/04 08:08:04;;;;;;;10.17;4.17;;;7.90;99.90;;;;;;4998431;28;20218;-72
2023/02/04 08:10:30;;;;;;;5.60;3.83;;;7.90;99.90;;;;;;5007602;28;20221;-71
2023/02/04 08:12:56;;;;;;;7.20;3.37;;;7.90;99.90;;;;;;4990362;28;20229;-73
2023/02/04 08:15:21;;;;;;;10.97;4.00;;;7.90;99.90;;;;;;4998906;28;20273;-71
2023/02/04 08:17:47;;;;;;;8.10;3.00;;;7.90;99.90;;;;;;5011582;28;20224;-72
2023/02/04 08:20:13;;;;;;;5.07;2.80;;;7.90;99.90;;;;;;4990580;28;20234;-72
2023/02/04 08:22:39;;;;;;;5.37;2.60;;;7.90;99.90;;;;;;5010200;28;20287;-72
2023/02/04 08:25:05;;;;;;;6.10;3.20;;;7.80;99.90;;;;;;5014893;28;20289;-72
2023/02/04 08:27:30;;;;;;;8.80;2.90;;;7.90;99.90;;;;;;5016602;28;20862;-72
2023/02/04 08:29:56;;;;;;;12.80;3.67;;;7.90;99.90;;;;;;5007661;28;20593;-72
2023/02/04 08:32:22;;;;;;;8.83;3.33;;;7.90;99.90;;;;;;5011156;28;20702;-71
2023/02/04 08:34:47;;;;;;;7.50;3.97;;;7.90;99.90;;;;;;5009334;28;20230;-73
2023/02/04 08:37:14;;;;;;;4.17;2.63;;;7.90;99.90;;;;;;4991685;28;20723;-72
2023/02/04 08:39:45;;;;;;;7.07;3.53;;;7.90;99.90;;;;;;5008850;28;20648;-71
2023/02/04 08:42:11;;;;;;;9.73;4.23;;;7.90;99.90;;;;;;5010193;28;21087;-71
2023/02/04 08:44:37;;;;;;;9.33;3.70;;;7.90;99.90;;;;;;4993050;28;20513;-72
2023/02/04 08:47:02;;;;;;;8.03;4.30;;;7.90;99.90;;;;;;5008718;28;20818;-71
2023/02/04 08:49:28;;;;;;;7.90;3.67;;;7.90;99.90;;;;;;5002392;28;20761;-71
2023/02/04 08:51:54;;;;;;;8.10;3.63;;;7.80;99.90;;;;;;4992526;28;20311;-72
2023/02/04 08:54:20;;;;;;;8.50;3.67;;;7.60;99.90;;;;;;5006112;28;20478;-71
2023/02/04 08:56:46;;;;;;;7.50;3.47;;;7.50;99.90;;;;;;5002710;28;20220;-72
2023/02/04 08:59:11;;;;;;;7.80;4.03;;;7.50;99.90;;;;;;5002554;28;20222;-72
2023/02/04 09:01:37;;;;;;;7.87;3.90;;;7.50;99.90;;;;;;5002801;28;20251;-72
2023/02/04 09:04:03;;;;;;;9.00;4.17;;;7.60;99.90;;;;;;5005919;28;20301;-72
2023/02/04 09:06:29;;;;;;;9.90;3.70;;;7.60;99.90;;;;;;4989992;28;20222;-72
2023/02/04 09:08:54;;;;;;;7.93;3.57;;;7.70;99.90;;;;;;5007279;28;20303;-71
2023/02/04 09:11:20;;;;;;;7.33;3.40;;;7.80;99.90;;;;;;4988991;28;20264;-72
2023/02/04 09:13:46;;;;;;;10.53;3.77;;;7.80;99.90;;;;;;5005846;28;20678;-73
2023/02/04 09:16:12;;;;;;;7.37;3.17;;;7.90;99.90;;;;;;4990572;28;20219;-72
2023/02/04 09:18:39;;;;;;;16.10;4.60;;;7.90;99.90;;;;;;5004832;28;20305;-72
2023/02/04 09:21:05;;;;;;;5.67;3.50;;;7.90;99.90;;;;;;5018161;28;20469;-73
2023/02/04 09:23:31;;;;;;;10.27;4.50;;;7.90;99.90;;;;;;4988108;28;20565;-72
2023/02/04 09:25:56;;;;;;;12.60;5.30;;;7.90;99.90;;;;;;5001923;28;20221;-71
2023/02/04 09:28:22;;;;;;;17.13;4.47;;;7.90;99.90;;;;;;5002476;28;20228;-72
2023/02/04 09:30:47;;;;;;;16.27;4.90;;;8.00;99.90;;;;;;5003346;28;20219;-72
2023/02/04 09:33:15;;;;;;;11.57;3.43;;;8.00;99.90;;;;;;5005073;28;20391;-72
2023/02/04 09:35:41;;;;;;;9.43;4.17;;;8.00;99.90;;;;;;4997234;28;20238;-71
2023/02/04 09:38:07;;;;;;;7.97;3.60;;;8.00;99.90;;;;;;5004403;28;20552;-72
2023/02/04 09:40:37;;;;;;;8.63;3.23;;;8.00;99.90;;;;;;5002177;28;20250;-72
2023/02/04 09:43:04;;;;;;;8.13;3.20;;;8.00;99.90;;;;;;4988168;28;20643;-72
2023/02/04 09:45:34;;;;;;;11.73;4.10;;;8.00;99.90;;;;;;4981747;28;20821;-72
2023/02/04 09:48:03;;;;;;;7.10;3.57;;;8.10;99.90;;;;;;5006474;28;20464;-72
2023/02/04 09:50:30;;;;;;;3.67;3.00;;;8.10;99.90;;;;;;4989451;28;20553;-71
2023/02/04 09:53:00;;;;;;;19.13;4.57;;;8.10;99.90;;;;;;4982827;28;20534;-72
2023/02/04 09:55:32;;;;;;;9.27;4.30;;;8.10;99.90;;;;;;4997372;28;20533;-72
2023/02/04 09:57:59;;;;;;;8.47;3.30;;;8.10;99.90;;;;;;4986030;28;20463;-72
2023/02/04 10:00:27;;;;;;;6.00;3.77;;;8.20;99.90;;;;;;4989806;28;20513;-72
2023/02/04 10:02:54;;;;;;;8.53;4.10;;;8.20;99.90;;;;;;5005970;28;20470;-73
2023/02/04 10:05:40;;;;;;;11.20;4.20;;;8.30;99.90;;;;;;5003369;28;20978;-72
2023/02/04 10:08:05;;;;;;;8.13;4.27;;;8.40;99.90;;;;;;4985045;28;20476;-72
2023/02/04 10:10:31;;;;;;;15.43;4.13;;;8.50;99.90;;;;;;4989043;28;20483;-72
2023/02/04 10:13:00;;;;;;;10.03;3.80;;;8.50;99.90;;;;;;4992879;28;20220;-72
2023/02/04 10:15:27;;;;;;;10.20;3.60;;;8.50;99.90;;;;;;4984854;28;20224;-73
2023/02/04 10:18:03;;;;;;;16.70;3.03;;;8.40;99.90;;;;;;4986518;28;20823;-73
2023/02/04 10:20:29;;;;;;;11.43;3.43;;;8.40;99.90;;;;;;4990889;28;20462;-72
2023/02/04 10:22:55;;;;;;;9.07;3.73;;;8.40;99.90;;;;;;5008736;28;20467;-72
2023/02/04 10:25:23;;;;;;;5.27;3.90;;;8.50;99.90;;;;;;5000860;28;20219;-70
2023/02/04 10:27:54;;;;;;;7.30;3.87;;;8.60;99.90;;;;;;4988327;28;20454;-72
2023/02/04 10:30:28;;;;;;;10.90;3.53;;;8.60;99.90;;;;;;5006814;28;20546;-73
2023/02/04 10:32:54;;;;;;;7.37;3.37;;;8.70;99.90;;;;;;5004485;28;20465;-73
2023/02/04 10:35:21;;;;;;;7.70;3.30;;;8.80;99.90;;;;;;5003077;28;20467;-73
2023/02/04 10:38:00;;;;;;;10.30;3.73;;;8.70;99.90;;;;;;5007693;28;20220;-72
2023/02/04 10:40:30;;;;;;;7.03;2.80;;;8.70;99.90;;;;;;5006883;28;20467;-73
2023/02/04 10:42:56;;;;;;;7.27;3.00;;;8.70;99.90;;;;;;5006008;28;20541;-72
2023/02/04 10:45:27;;;;;;;4.43;2.77;;;8.80;99.90;;;;;;5007128;28;20549;-70
2023/02/04 10:47:55;;;;;;;8.53;3.33;;;8.80;99.90;;;;;;5006755;28;20223;-72
2023/02/04 10:50:23;;;;;;;5.13;3.10;;;8.70;99.90;;;;;;4988596;28;20460;-72
2023/02/04 10:52:54;;;;;;;10.13;3.70;;;8.70;99.90;;;;;;5005065;28;20478;-72
2023/02/04 10:55:22;;;;;;;11.90;3.87;;;8.70;99.90;;;;;;5006796;28;20508;-72
2023/02/04 10:57:50;;;;;;;14.77;3.50;;;8.70;99.90;;;;;;5005883;28;20462;-73
2023/02/04 11:00:24;;;;;;;8.97;3.30;;;8.70;99.90;;;;;;5009599;28;20486;-72
2023/02/04 11:03:02;;;;;;;10.50;3.70;;;8.80;99.90;;;;;;5007056;28;20474;-71
2023/02/04 11:05:33;;;;;;;12.07;3.57;;;8.80;99.90;;;;;;5005183;28;20460;-72
2023/02/04 11:07:59;;;;;;;8.77;2.90;;;8.90;99.90;;;;;;5006852;28;20454;-72
2023/02/04 11:10:31;;;;;;;7.47;3.43;;;8.80;99.90;;;;;;4989320;28;20522;-73
2023/02/04 11:12:57;;;;;;;8.33;3.47;;;8.90;99.90;;;;;;5006510;28;20456;-73
2023/02/04 11:15:45;;;;;;;14.03;3.77;;;8.90;99.90;;;;;;5005852;28;20553;-72
2023/02/04 11:18:20;;;;;;;7.23;3.20;;;8.90;99.90;;;;;;5006900;28;20225;-73
2023/02/04 11:20:47;;;;;;;7.40;3.17;;;8.90;99.90;;;;;;5003577;28;20453;-73
2023/02/04 11:23:33;;;;;;;5.10;3.10;;;8.90;99.90;;;;;;4984692;28;20478;-73
2023/02/04 11:26:12;;;;;;;7.50;3.40;;;9.00;99.90;;;;;;4998910;28;20492;-72
2023/02/04 11:28:39;;;;;;;7.13;3.20;;;9.00;99.90;;;;;;5000929;28;20462;-73
2023/02/04 11:31:15;;;;;;;9.10;2.50;;;9.10;99.90;;;;;;4986832;28;20469;-72
2023/02/04 11:33:41;;;;;;;11.00;3.10;;;9.10;99.90;;;;;;5002996;28;20484;-72
2023/02/04 11:36:10;;;;;;;7.80;2.10;;;9.10;99.90;;;;;;4988354;28;20470;-73
2023/02/04 11:38:37;;;;;;;8.13;2.27;;;9.10;99.90;;;;;;4998961;28;20459;-72
2023/02/04 11:41:04;;;;;;;7.33;2.07;;;9.20;99.90;;;;;;4997350;28;20445;-72
2023/02/04 11:43:33;;;;;;;10.30;3.40;;;9.30;99.90;;;;;;4991027;28;20474;-73
2023/02/04 11:46:09;;;;;;;9.50;4.47;;;9.30;99.90;;;;;;5006526;28;20530;-71
2023/02/04 11:48:35;;;;;;;16.27;5.37;;;9.40;99.90;;;;;;5007234;28;20540;-73
2023/02/04 11:51:02;;;;;;;12.17;4.80;;;9.40;99.90;;;;;;4986099;28;20483;-72
2023/02/04 11:53:30;;;;;;;7.50;3.87;;;9.50;99.90;;;;;;5010489;28;20470;-73
2023/02/04 11:55:56;;;;;;;12.07;4.10;;;9.60;99.90;;;;;;5005366;28;20448;-73
2023/02/04 11:58:24;;;;;;;7.90;4.13;;;9.60;99.90;;;;;;4989396;28;20458;-73
2023/02/04 12:00:51;;;;;;;11.50;3.87;;;9.70;99.90;;;;;;5005786;28;20475;-72
2023/02/04 12:03:29;;;;;;;8.40;4.40;;;9.80;99.90;;;;;;5008782;28;20470;-73
2023/02/04 12:05:56;;;;;;;12.93;4.43;;;9.80;99.90;;;;;;5008178;28;20483;-72
2023/02/04 12:08:24;;;;;;;14.07;5.60;;;9.90;99.90;;;;;;5008818;28;20493;-72
2023/02/04 12:11:01;;;;;;;16.80;6.03;;;10.00;99.90;;;;;;5007552;28;20458;-73
2023/02/04 12:13:27;;;;;;;9.30;4.13;;;10.00;99.90;;;;;;5006509;28;20454;-73
2023/02/04 12:15:58;;;;;;;8.20;3.17;;;9.80;99.90;;;;;;5003353;28;20452;-71
2023/02/04 12:18:26;;;;;;;9.13;3.40;;;9.70;99.90;;;;;;4981107;28;20539;-73
2023/02/04 12:20:53;;;;;;;7.60;3.20;;;9.60;99.90;;;;;;5018118;28;20792;-71
2023/02/04 12:23:18;;;;;;;12.60;3.90;;;9.70;99.90;;;;;;5009973;28;20458;-72
2023/02/04 12:25:44;;;;;;;4.30;2.73;;;9.60;99.90;;;;;;4991056;28;20462;-70
2023/02/04 12:28:10;;;;;;;11.43;3.30;;;9.50;99.90;;;;;;5008430;28;20229;-70
2023/02/04 12:30:36;;;;;;;6.40;2.87;;;9.40;99.90;;;;;;5008237;28;20220;-71
2023/02/04 12:33:01;;;;;;;10.47;4.90;;;9.50;99.90;;;;;;5009035;28;20234;-70
2023/02/04 12:35:27;;;;;;;13.30;4.63;;;9.60;99.90;;;;;;5005430;28;20227;-71
2023/02/04 12:37:53;;;;;;;5.03;2.70;;;9.50;99.90;;;;;;5016610;28;20310;-70
2023/02/04 12:40:20;;;;;;;4.20;2.70;;;9.50;99.90;;;;;;4996032;28;20640;-71
2023/02/04 12:42:46;;;;;;;7.13;3.70;;;9.50;99.90;;;;;;5018253;28;20227;-73
2023/02/04 12:45:14;;;;;;;11.10;5.50;;;9.50;99.90;;;;;;5001811;28;20454;-70
2023/02/04 12:47:40;;;;;;;11.50;5.20;;;9.40;99.90;;;;;;5008471;28;20537;-71
2023/02/04 12:50:07;;;;;;;25.93;8.03;;;9.50;99.90;;;;;;5011954;28;20458;-71
2023/02/04 12:52:33;;;;;;;29.10;9.80;;;9.50;99.90;;;;;;5004594;28;20485;-70
2023/02/04 12:55:00;;;;;;;25.20;10.87;;;9.60;99.90;;;;;;5019681;28;20547;-71